Flight Track Log - Related Links

Times and Time Zones

All times are in EDT time to prevent confusion due to time zone crossing. See the EGF3046 flight status page for this flight to view local times or setup timezone preferences in your user account.

Time Position Orientation Groundspeed Altitude Reporting Facility
EDT Latitude Longitude Course Direction KTS MPH feet Rate Location/Type
Sat 05:19:16 PM 43.1172 -76.2208 280° West 193 222 3,500  Level Boston Center
Sat 05:20:00 PM 43.1833 -76.4038 270° West  Level FlightAware Approximate
Sat 05:21:00 PM 43.2005 -76.5031 281° West  Level FlightAware Approximate
Sat 05:21:32 PM 43.1739 -76.3808 296° West 221 254 7,800  Level Cleveland Center
Sat 05:22:00 PM 43.2160 -76.6120 281° West  Level FlightAware Approximate
Sat 05:22:32 PM 43.2039 -76.4617 297° West 226 260 9,800  Level Cleveland Center
Sat 05:23:00 PM 43.2386 -76.7186 286° West  Level FlightAware Approximate
Sat 05:23:32 PM 43.2114 -76.5608 276° West 246 283 10,900  Level Cleveland Center
Sat 05:24:32 PM 43.2069 -76.6750 267° West 273 314 11,900 1,100 Climbing Cleveland Center
Sat 05:25:32 PM 43.2069 -76.8003 270° West 308 354 13,100 1,450 Climbing Cleveland Center
Sat 05:26:32 PM 43.2050 -76.9317 269° West 326 375 14,800 1,650 Climbing Cleveland Center
Sat 05:27:32 PM 43.2044 -77.0514 270° West 326 375 16,400 1,450 Climbing Cleveland Center
Sat 05:28:32 PM 43.2019 -77.1739 268° West 326 375 17,700 1,450 Climbing Cleveland Center
Sat 05:29:32 PM 43.2033 -77.2908 271° West 326 375 19,300 1,550 Climbing Cleveland Center
Sat 05:30:32 PM 43.2025 -77.4133 270° West 326 375 20,800 1,500 Climbing Cleveland Center
Sat 05:31:32 PM 43.2014 -77.5272 269° West 326 375 22,300 1,500 Climbing Cleveland Center
Sat 05:32:32 PM 43.2003 -77.6411 269° West 320 368 23,800 1,450 Climbing Cleveland Center
Sat 05:33:32 PM 43.1986 -77.7494 269° West 307 353 25,200 1,300 Climbing Cleveland Center
Sat 05:34:32 PM 43.1972 -77.8606 269° West 296 341 26,400 1,200 Climbing Cleveland Center
Sat 05:35:32 PM 43.1956 -77.9689 269° West 290 334 27,600 1,200 Climbing Cleveland Center
Sat 05:36:32 PM 43.1958 -78.0772 270° West 290 334 28,800 1,200 Climbing Cleveland Center
Sat 05:37:32 PM 43.1919 -78.1828 267° West 290 334 30,000 1,100 Climbing Cleveland Center
Sat 05:38:32 PM 43.1919 -78.2908 270° West 290 334 31,000 1,050 Climbing Cleveland Center
Sat 05:39:32 PM 43.1897 -78.3906 268° West 296 341 32,100 1,050 Climbing Cleveland Center
Sat 05:40:32 PM 43.1878 -78.5047 269° West 296 341 33,100 1,000 Climbing Cleveland Center
Sat 05:41:32 PM 43.1856 -78.6158 268° West 296 341 34,100 1,000 Climbing Cleveland Center
Sat 05:42:32 PM 43.1831 -78.7242 268° West 290 334 35,100 950 Climbing Cleveland Center
Sat 05:43:32 PM 43.1806 -78.8353 268° West 290 334 36,000 412 Climbing Cleveland Center
Sat 05:44:43 PM 43.1667 -78.9667 262° West 300 345 36,000  Level Toronto Center
Sat 05:45:43 PM 43.1667 -79.0833 270° West 320 368 36,000  Level Toronto Center
Sat 05:46:43 PM 43.1667 -79.2167 270° West 340 391 36,000  Level Toronto Center
Sat 05:47:43 PM 43.1500 -79.3333 259° West 360 414 36,000  Level Toronto Center
Sat 05:48:43 PM 43.1500 -79.5000 270° West 370 426 36,000  Level Toronto Center
Sat 05:49:43 PM 43.1500 -79.6333 270° West 370 426 36,000  Level Toronto Center
Sat 05:50:43 PM 43.1500 -79.7667 270° West 360 414 36,000  Level Toronto Center
Sat 05:51:43 PM 43.1500 -79.9000 270° West 360 414 36,000  Level Toronto Center
Sat 05:52:43 PM 43.1333 -80.0500 261° West 360 414 36,000  Level Toronto Center
Sat 05:53:43 PM 43.1333 -80.1833 270° West 360 414 36,000  Level Toronto Center
Sat 05:54:43 PM 43.1333 -80.3167 270° West 360 414 36,000  Level Toronto Center
Sat 05:55:43 PM 43.1333 -80.4500 270° West 360 414 36,000  Level Toronto Center
Sat 05:56:43 PM 43.1167 -80.6000 261° West 360 414 36,000  Level Toronto Center
Sat 05:57:43 PM 43.1167 -80.7333 270° West 360 414 36,000  Level Toronto Center
Sat 05:58:43 PM 43.1000 -80.8667 260° West 360 414 36,000  Level Toronto Center
Sat 05:59:43 PM 43.1000 -81.0000 270° West 360 414 36,000  Level Toronto Center
Sat 06:00:43 PM 43.0833 -81.1333 260° West 360 414 36,000  Level Toronto Center
Sat 06:01:43 PM 43.0833 -81.2833 270° West 360 414 36,000  Level Toronto Center
Sat 06:02:43 PM 43.0833 -81.4167 270° West 360 414 36,000  Level Toronto Center
Sat 06:03:43 PM 43.0833 -81.5333 270° West 360 414 36,000  Level Toronto Center
Sat 06:04:43 PM 43.0667 -81.6667 260° West 360 414 36,000  Level Toronto Center
Sat 06:05:43 PM 43.0667 -81.8000 270° West 350 403 36,000  Level Toronto Center
Sat 06:06:43 PM 43.0500 -81.9333 260° West 350 403 36,000  Level Toronto Center
Sat 06:07:43 PM 43.0500 -82.0667 270° West 350 403 36,000  Level Toronto Center
Sat 06:08:43 PM 43.0333 -82.2167 261° West 350 403 36,000  Level Toronto Center
Sat 06:09:43 PM 43.0333 -82.3500 270° West 350 403 36,000  Level Toronto Center
Sat 06:10:43 PM 43.0333 -82.4833 270° West 350 403 36,000 -450 Level Toronto Center
Sat 06:11:43 PM 43.0333 -82.6167 270° West 360 414 35,100 -950 Descending Toronto Center
Sat 06:12:43 PM 43.0167 -82.7500 260° West 360 414 34,100 -1,000 Descending Toronto Center
Sat 06:13:43 PM 43.0000 -82.9000 261° West 360 414 33,100 -1,000 Descending Toronto Center
Sat 06:14:43 PM 43.0000 -83.0333 270° West 370 426 32,100 -550 Descending Toronto Center
Sat 06:15:43 PM 43.0000 -83.1667 270° West 370 426 32,000 -50 Descending Toronto Center
Sat 06:16:43 PM 42.9833 -83.3333 262° West 380 437 32,000  Level Toronto Center
Sat 06:17:43 PM 42.9667 -83.4667 260° West 380 437 32,000  Level Toronto Center
Sat 06:18:43 PM 42.9667 -83.6000 270° West 370 426 32,000  Level Toronto Center
Sat 06:19:43 PM 42.9500 -83.7333 260° West 370 426 32,000  Level Toronto Center
Sat 06:20:43 PM 42.9333 -83.8667 260° West 380 437 32,000  Level Toronto Center
Sat 06:21:43 PM 42.9333 -84.0333 270° West 380 437 32,000  Level Toronto Center
Sat 06:23:05 PM 42.9231 -84.2019 265° West 391 450 32,000  Level Chicago Center
Sat 06:24:07 PM 42.9058 -84.3764 262° West 389 448 32,000  Level Chicago Center
Sat 06:25:08 PM 42.8908 -84.5192 262° West 384 442 32,000  Level Chicago Center
Sat 06:26:10 PM 42.8761 -84.6631 262° West 383 441 32,000  Level Chicago Center
Sat 06:27:12 PM 42.8611 -84.8069 262° West 385 443 32,000  Level Chicago Center
Sat 06:28:14 PM 42.8464 -84.9508 262° West 385 443 32,000  Level Chicago Center
Sat 06:29:15 PM 42.8314 -85.0942 262° West 382 440 32,000 -195 Level Chicago Center
Sat 06:30:17 PM 42.8147 -85.2375 261° West 383 441 31,600 -919 Descending Chicago Center
Sat 06:31:19 PM 42.7992 -85.3808 262° West 383 441 30,100 -1,524 Descending Chicago Center
Sat 06:32:23 PM 42.7775 -85.5589 261° West 393 452 28,400 -1,597 Descending Chicago Center
Sat 06:33:23 PM 42.7492 -85.7083 256° West 404 465 26,800 -1,537 Descending Chicago Center
Sat 06:34:24 PM 42.7231 -85.8519 256° West 392 451 25,300 -1,561 Descending Chicago Center
Sat 06:35:26 PM 42.6972 -85.9925 256° West 382 440 23,600 -1,887 Descending Chicago Center
Sat 06:36:28 PM 42.6728 -86.1292 256° West 372 428 21,400 -1,935 Descending Chicago Center
Sat 06:37:30 PM 42.6481 -86.2606 256° West 360 414 19,600 -1,610 Descending Chicago Center
Sat 06:38:31 PM 42.6233 -86.3897 255° West 354 407 18,100 -1,512 Descending Chicago Center
Sat 06:39:33 PM 42.5989 -86.5183 256° West 352 405 16,500 -1,548 Descending Chicago Center
Sat 06:40:35 PM 42.5744 -86.6489 256° West 357 411 14,900 -1,645 Descending Chicago Center
Sat 06:41:37 PM 42.5422 -86.8042 254° West 357 411 13,100 -1,659 Descending Chicago Center
Sat 06:42:38 PM 42.5056 -86.9275 248° West 355 409 11,500 -1,512 Descending Chicago Center
Sat 06:43:40 PM 42.4725 -87.0506 250° West 349 402 10,000 -726 Descending Chicago Center
Sat 06:44:42 PM 42.4389 -87.1708 249° West 345 397 10,000 -387 Level Chicago Center
Sat 06:45:44 PM 42.4108 -87.2742 250° West 292 336 9,200 -488 Descending Chicago Center
Sat 06:46:45 PM 42.3619 -87.3411 225° Southwest 288 331 9,000 -780 Descending Chicago Center
Sat 06:47:47 PM 42.2831 -87.3867 203° Southwest 277 319 7,600 -1,355 Descending Chicago Center
Sat 06:48:49 PM 42.2275 -87.4561 223° Southwest 274 315 6,200 -1,452 Descending Chicago Center
Sat 06:49:51 PM 42.1753 -87.5233 224° Southwest 265 305 4,600 -1,073 Descending Chicago Center
Sat 06:50:52 PM 42.1231 -87.5883 223° Southwest 259 298 4,000 -293 Descending Chicago Center
Sat 06:51:54 PM 42.0525 -87.6550 215° Southwest 259 298 4,000  Level Chicago Center

Login

Don't have an account? Register now (free) for customized features, flight alerts, and more!